Buoy 41936

sailwx.info

Track history (hours):
 
Tides and Currents Weather Stations Pressure Air Temp Water Temp Dewpoint Dewpoint Depression Visibility Wind Speed Wind Dir Waves Ship Positions

Drifting buoy 41936

Last reported at 2015-Apr-01 02:00 UTC. Time now 2015-Apr-01 09:23 UTC.
Position N 34°45' W 057°38'.

Barometer 1016.8 mb

Date/timePositionNaut miles runAvg speedWind from/ knotsBaromVisibWave heightAir tempDewpointWater temp
2015-Apr-01 02:00N 34°45' W 057°38'13 1.2 1016.8
2015-Mar-31 15:00N 34°45' W 057°55'0 0.5 1014.6
2015-Mar-31 14:00N 34°45' W 057°55'4 1.4 1015.0
2015-Mar-31 11:00N 34°47' W 057°60'1 0.6 1014.5
2015-Mar-31 10:00N 34°48' W 058°00'10 3.5 1014.2
2015-Mar-31 07:00N 34°52' W 058°12'1 0.2 1013.4
2015-Mar-31 01:00N 34°53' W 058°13'6 1.5 1013.4
2015-Mar-30 21:00N 34°54' W 058°20'5 2.3 1010.5
2015-Mar-30 19:00N 34°54' W 058°25'7 1.7 1009.1
2015-Mar-30 15:00N 34°54' W 058°34'0 0.0 1010.7
2015-Mar-30 14:00N 34°54' W 058°34'6 1.6 1010.5
2015-Mar-30 10:00N 34°59' W 058°39'0 0.0 1008.3
2015-Mar-30 09:00N 34°59' W 058°39'5 2.6 1007.5
2015-Mar-30 07:00N 35°02' W 058°44'1 0.2 1007.7
2015-Mar-30 02:00N 35°02' W 058°43'2 1.7 1011.4
2015-Mar-30 01:00N 35°03' W 058°45'1 0.2 1011.4
2015-Mar-29 22:00N 35°04' W 058°45'1 0.4 1012.5
2015-Mar-29 20:00N 35°04' W 058°45'1 0.3 1013.1
2015-Mar-29 18:00N 35°05' W 058°44'3 0.9 1014.0
2015-Mar-29 15:00N 35°07' W 058°44'3 1.3 1015.7
2015-Mar-29 13:00N 35°10' W 058°45'0 0.0 1016.1
2015-Mar-29 11:00N 35°10' W 058°45'2 2.2 1014.9
2015-Mar-29 10:00N 35°12' W 058°46'1 0.6 1014.5
2015-Mar-29 09:00N 35°11' W 058°46'4 1.8 1013.9
2015-Mar-29 07:00N 35°12' W 058°50'0 0.0 1013.5
2015-Mar-29 03:00N 35°12' W 058°50'0 0.0 1015.7
2015-Mar-29 02:00N 35°12' W 058°50'2 1.7 1016.2
2015-Mar-29 01:00N 35°14' W 058°51'0 0.0 1015.7
2015-Mar-29 00:00N 35°14' W 058°51'3 0.9 1016.8
2015-Mar-28 20:00N 35°15' W 058°55'3 0.5 1016.5
2015-Mar-28 14:00N 35°15' W 058°59'0 0.0 1019.0
2015-Mar-28 13:00N 35°15' W 058°59'1 0.6 1019.4
2015-Mar-28 11:00N 35°16' W 058°60'0 0.0 1019.1
2015-Mar-28 10:00N 35°16' W 058°60'0 0.1 1018.9
2015-Mar-28 09:00N 35°16' W 058°60'1 0.8 1018.6
2015-Mar-28 08:00N 35°16' W 059°00'1 0.6 1018.7
2015-Mar-28 07:00N 35°16' W 059°00'3 2.6 1018.9
2015-Mar-28 06:00N 35°16' W 059°03'2 0.3 1019.6
2015-Mar-28 01:00N 35°17' W 059°05'0 0.0 1021.9
2015-Mar-28 00:00N 35°17' W 059°05'2 0.7 1022.3
2015-Mar-27 21:00N 35°17' W 059°08'2 0.8 1022.0
2015-Mar-27 18:00N 35°17' W 059°10'0 0.0 1022.7
2015-Mar-27 17:00N 35°17' W 059°10'3 0.9 1023.4
2015-Mar-27 14:00N 35°17' W 059°14'0 0.2 1025.4
2015-Mar-27 13:00N 35°17' W 059°14'0 0.0 1025.2
2015-Mar-27 11:00N 35°17' W 059°14'0 0.4 1025.8
2015-Mar-27 10:00N 35°18' W 059°14'1 0.9 1025.2
2015-Mar-27 09:00N 35°18' W 059°15'3 3.2 1025.3
2015-Mar-27 08:00N 35°17' W 059°18'3 3.2 1025.1
2015-Mar-27 07:00N 35°18' W 059°15'3 3.2 1025.4
2015-Mar-27 06:00N 35°17' W 059°18'0 0.0 1026.3
2015-Mar-27 02:00N 35°17' W 059°19'1 0.4 1027.8
2015-Mar-26 23:00N 35°16' W 059°19'1 0.3 1028.1
2015-Mar-26 21:00N 35°16' W 059°18'0 0.0 1027.5
2015-Mar-26 20:00N 35°16' W 059°18'2 0.3 1027.4
2015-Mar-26 14:00N 35°17' W 059°21'0 0.0 1028.8
2015-Mar-26 13:00N 35°17' W 059°21'4 0.3 1028.5
2015-Mar-26 01:00N 35°20' W 059°24'1 0.3 1025.5
2015-Mar-25 22:00N 35°20' W 059°25'4 1.0 1023.4
2015-Mar-25 18:00N 35°22' W 059°29'0 0.0 1021.1
2015-Mar-25 17:00N 35°22' W 059°29'0 0.2 1021.1
2015-Mar-25 15:00N 35°22' W 059°29'0 0.2 1021.2
2015-Mar-25 14:00N 35°21' W 059°29'3 0.9 1021.3
2015-Mar-25 11:00N 35°20' W 059°32'0 0.1 1020.3
2015-Mar-25 10:00N 35°20' W 059°32'2 0.6 1020.0
2015-Mar-25 07:00N 35°21' W 059°34'3 0.5 1019.6
2015-Mar-25 02:00N 35°22' W 059°37'4 3.8 1019.7
2015-Mar-25 01:00N 35°24' W 059°41'9 0.8 1020.0
2015-Mar-24 14:00N 35°29' W 059°50'0 0.1 1016.2
2015-Mar-24 11:00N 35°29' W 059°50'1 0.7 1014.9
2015-Mar-24 10:00N 35°29' W 059°50'1 0.4 1014.4
2015-Mar-24 07:00N 35°30' W 059°52'6 0.8 1014.2
2015-Mar-23 23:00N 35°31' W 059°59'2 0.4 1015.3
2015-Mar-23 18:00N 35°32' W 060°01'10 1.3 1014.8
2015-Mar-23 10:00N 35°32' W 060°14'0 0.0 1016.1
2015-Mar-23 09:00N 35°32' W 060°14'9 1.1 1015.8
2015-Mar-23 01:00N 35°31' W 060°24'11 0.8 1017.2
2015-Mar-22 11:00N 35°29' W 060°38'   1012.8
Track history (hours):
 
Tides and Currents Weather Stations Pressure Air Temp Water Temp Dewpoint Dewpoint Depression Visibility Wind Speed Wind Dir Waves Ship Positions

Drifting buoy 41936

Last reported at 2015-Apr-01 02:00 UTC. Time now 2015-Apr-01 09:23 UTC.
Position N 34°45' W 057°38'.

Barometer 1016.8 mb

Date/timePositionNaut miles runAvg speedWind from/ knotsBaromVisibWave heightAir tempDewpointWater temp
2015-Apr-01 02:00N 34°45' W 057°38'13 1.2 1016.8
2015-Mar-31 15:00N 34°45' W 057°55'0 0.5 1014.6
2015-Mar-31 14:00N 34°45' W 057°55'4 1.4 1015.0
2015-Mar-31 11:00N 34°47' W 057°60'1 0.6 1014.5
2015-Mar-31 10:00N 34°48' W 058°00'10 3.5 1014.2
2015-Mar-31 07:00N 34°52' W 058°12'1 0.2 1013.4
2015-Mar-31 01:00N 34°53' W 058°13'6 1.5 1013.4
2015-Mar-30 21:00N 34°54' W 058°20'5 2.3 1010.5
2015-Mar-30 19:00N 34°54' W 058°25'7 1.7 1009.1
2015-Mar-30 15:00N 34°54' W 058°34'0 0.0 1010.7
2015-Mar-30 14:00N 34°54' W 058°34'6 1.6 1010.5
2015-Mar-30 10:00N 34°59' W 058°39'0 0.0 1008.3
2015-Mar-30 09:00N 34°59' W 058°39'5 2.6 1007.5
2015-Mar-30 07:00N 35°02' W 058°44'1 0.2 1007.7
2015-Mar-30 02:00N 35°02' W 058°43'2 1.7 1011.4
2015-Mar-30 01:00N 35°03' W 058°45'1 0.2 1011.4
2015-Mar-29 22:00N 35°04' W 058°45'1 0.4 1012.5
2015-Mar-29 20:00N 35°04' W 058°45'1 0.3 1013.1
2015-Mar-29 18:00N 35°05' W 058°44'3 0.9 1014.0
2015-Mar-29 15:00N 35°07' W 058°44'3 1.3 1015.7
2015-Mar-29 13:00N 35°10' W 058°45'0 0.0 1016.1
2015-Mar-29 11:00N 35°10' W 058°45'2 2.2 1014.9
2015-Mar-29 10:00N 35°12' W 058°46'1 0.6 1014.5
2015-Mar-29 09:00N 35°11' W 058°46'4 1.8 1013.9
2015-Mar-29 07:00N 35°12' W 058°50'0 0.0 1013.5
2015-Mar-29 03:00N 35°12' W 058°50'0 0.0 1015.7
2015-Mar-29 02:00N 35°12' W 058°50'2 1.7 1016.2
2015-Mar-29 01:00N 35°14' W 058°51'0 0.0 1015.7
2015-Mar-29 00:00N 35°14' W 058°51'3 0.9 1016.8
2015-Mar-28 20:00N 35°15' W 058°55'3 0.5 1016.5
2015-Mar-28 14:00N 35°15' W 058°59'0 0.0 1019.0
2015-Mar-28 13:00N 35°15' W 058°59'1 0.6 1019.4
2015-Mar-28 11:00N 35°16' W 058°60'0 0.0 1019.1
2015-Mar-28 10:00N 35°16' W 058°60'0 0.1 1018.9
2015-Mar-28 09:00N 35°16' W 058°60'1 0.8 1018.6
2015-Mar-28 08:00N 35°16' W 059°00'1 0.6 1018.7
2015-Mar-28 07:00N 35°16' W 059°00'3 2.6 1018.9
2015-Mar-28 06:00N 35°16' W 059°03'2 0.3 1019.6
2015-Mar-28 01:00N 35°17' W 059°05'0 0.0 1021.9
2015-Mar-28 00:00N 35°17' W 059°05'2 0.7 1022.3
2015-Mar-27 21:00N 35°17' W 059°08'2 0.8 1022.0
2015-Mar-27 18:00N 35°17' W 059°10'0 0.0 1022.7
2015-Mar-27 17:00N 35°17' W 059°10'3 0.9 1023.4
2015-Mar-27 14:00N 35°17' W 059°14'0 0.2 1025.4
2015-Mar-27 13:00N 35°17' W 059°14'0 0.0 1025.2
2015-Mar-27 11:00N 35°17' W 059°14'0 0.4 1025.8
2015-Mar-27 10:00N 35°18' W 059°14'1 0.9 1025.2
2015-Mar-27 09:00N 35°18' W 059°15'3 3.2 1025.3
2015-Mar-27 08:00N 35°17' W 059°18'3 3.2 1025.1
2015-Mar-27 07:00N 35°18' W 059°15'3 3.2 1025.4
2015-Mar-27 06:00N 35°17' W 059°18'0 0.0 1026.3
2015-Mar-27 02:00N 35°17' W 059°19'1 0.4 1027.8
2015-Mar-26 23:00N 35°16' W 059°19'1 0.3 1028.1
2015-Mar-26 21:00N 35°16' W 059°18'0 0.0 1027.5
2015-Mar-26 20:00N 35°16' W 059°18'2 0.3 1027.4
2015-Mar-26 14:00N 35°17' W 059°21'0 0.0 1028.8
2015-Mar-26 13:00N 35°17' W 059°21'4 0.3 1028.5
2015-Mar-26 01:00N 35°20' W 059°24'1 0.3 1025.5
2015-Mar-25 22:00N 35°20' W 059°25'4 1.0 1023.4
2015-Mar-25 18:00N 35°22' W 059°29'0 0.0 1021.1
2015-Mar-25 17:00N 35°22' W 059°29'0 0.2 1021.1
2015-Mar-25 15:00N 35°22' W 059°29'0 0.2 1021.2
2015-Mar-25 14:00N 35°21' W 059°29'3 0.9 1021.3
2015-Mar-25 11:00N 35°20' W 059°32'0 0.1 1020.3
2015-Mar-25 10:00N 35°20' W 059°32'2 0.6 1020.0
2015-Mar-25 07:00N 35°21' W 059°34'3 0.5 1019.6
2015-Mar-25 02:00N 35°22' W 059°37'4 3.8 1019.7
2015-Mar-25 01:00N 35°24' W 059°41'9 0.8 1020.0
2015-Mar-24 14:00N 35°29' W 059°50'0 0.1 1016.2
2015-Mar-24 11:00N 35°29' W 059°50'1 0.7 1014.9
2015-Mar-24 10:00N 35°29' W 059°50'1 0.4 1014.4
2015-Mar-24 07:00N 35°30' W 059°52'6 0.8 1014.2
2015-Mar-23 23:00N 35°31' W 059°59'2 0.4 1015.3
2015-Mar-23 18:00N 35°32' W 060°01'10 1.3 1014.8
2015-Mar-23 10:00N 35°32' W 060°14'0 0.0 1016.1
2015-Mar-23 09:00N 35°32' W 060°14'9 1.1 1015.8
2015-Mar-23 01:00N 35°31' W 060°24'11 0.8 1017.2
2015-Mar-22 11:00N 35°29' W 060°38'   1012.8

Dump ship's entire track history